Kindakun Rocks, Canada
Current Conditions -  °F | °C
As of 5:22 AM on Thursday 30 Oct 2014 (Local Time) from CYZP Reporting Station
Haze Haze  
Wind Chill: 50°   Ceiling: 1300
Heat Index: 50°   Visibility: 6mi
Dew Point: 48°   Wind: 15mph
Humidity: 94%   Direction: 140°SE
Pressure: 29.45"   Gusts: NA
Location:  53.32°N, 132.75°W
Report Text: CYZP 301222Z AUTO 14013KT 6SM BR SCT007 BKN013 BKN046 OVC110 10/09 A2945 RMK SLP973
Loading
Personal Weather Stations






























Interactive Weather Map
Tropical Storm Tracking
New forecast layout! Learn more

10-Day Weather Forecast

Advertisements
Track Severe Weather on mobile